createdAt,value
2018-07-25T00:00:42.900Z,97715.38
2018-07-25T00:03:11.712Z,97715.16
2018-07-25T00:05:40.578Z,97721.59
2018-07-25T00:08:09.378Z,97712.12
2018-07-25T00:10:43.444Z,97712.69
2018-07-25T00:13:12.153Z,97709.34
2018-07-25T00:15:41.177Z,97716.35
2018-07-25T00:18:09.961Z,97714.13
2018-07-25T00:20:38.666Z,97704.77
2018-07-25T00:23:07.454Z,97707.08
2018-07-25T00:25:36.284Z,97704.91
2018-07-25T00:28:05.015Z,97707.46
2018-07-25T00:30:33.814Z,97709.41
2018-07-25T00:33:02.809Z,97709.75
2018-07-25T00:35:31.675Z,97709.70
2018-07-25T00:38:00.754Z,97706.52
2018-07-25T00:40:29.607Z,97709.17
2018-07-25T00:42:58.532Z,97712.00
2018-07-25T00:45:27.546Z,97704.20
2018-07-25T00:47:56.322Z,97703.97
2018-07-25T00:50:25.034Z,97710.23
2018-07-25T00:52:53.986Z,97713.94
2018-07-25T00:55:22.926Z,97711.19
2018-07-25T00:57:51.853Z,97709.82
2018-07-25T01:00:21.082Z,97708.36
2018-07-25T01:02:50.393Z,97702.09
2018-07-25T01:05:20.634Z,97709.86
2018-07-25T01:07:49.531Z,97709.36
2018-07-25T01:10:18.437Z,97708.19
2018-07-25T01:12:47.321Z,97709.94
2018-07-25T01:15:16.216Z,97711.25
2018-07-25T01:17:44.981Z,97714.95
2018-07-25T01:20:13.749Z,97715.34
2018-07-25T01:22:42.549Z,97718.02
2018-07-25T01:25:11.273Z,97714.87
2018-07-25T01:27:40.159Z,97713.87
2018-07-25T01:30:08.907Z,97719.67
2018-07-25T01:32:37.731Z,97721.22
2018-07-25T01:35:06.553Z,97715.84
2018-07-25T01:37:35.408Z,97721.61
2018-07-25T01:40:04.439Z,97722.57
2018-07-25T01:42:33.280Z,97722.88
2018-07-25T01:45:02.245Z,97718.91
2018-07-25T01:47:30.957Z,97725.90
2018-07-25T01:49:59.962Z,97722.53
2018-07-25T01:52:28.772Z,97725.75
2018-07-25T01:54:57.691Z,97726.06
2018-07-25T01:57:26.455Z,97727.97
2018-07-25T01:59:55.223Z,97725.53
2018-07-25T02:02:24.087Z,97729.95
2018-07-25T02:04:52.802Z,97728.16
2018-07-25T02:07:21.625Z,97724.15
2018-07-25T02:09:50.803Z,97722.94
2018-07-25T02:12:19.653Z,97724.31
2018-07-25T02:14:48.441Z,97713.66
2018-07-25T02:17:17.235Z,97718.55
2018-07-25T02:19:46.070Z,97715.61
2018-07-25T02:22:14.929Z,97712.75
2018-07-25T02:24:43.683Z,97720.39
2018-07-25T02:27:12.638Z,97722.58
2018-07-25T02:29:41.373Z,97718.47
2018-07-25T02:32:10.620Z,97721.23
2018-07-25T02:34:39.369Z,97730.44
2018-07-25T02:37:08.143Z,97733.76
2018-07-25T02:39:37.137Z,97736.45
2018-07-25T02:42:06.078Z,97733.63
2018-07-25T02:44:34.837Z,97743.21
2018-07-25T02:47:03.626Z,97748.27
2018-07-25T02:49:32.543Z,97747.41
2018-07-25T02:52:01.355Z,97752.25
2018-07-25T02:54:30.115Z,97751.61
2018-07-25T02:56:58.936Z,97754.30
2018-07-25T02:59:27.723Z,97754.01
2018-07-25T03:01:56.578Z,97755.30
2018-07-25T03:04:25.475Z,97751.34
2018-07-25T03:06:54.256Z,97752.72
2018-07-25T03:09:23.015Z,97752.27
2018-07-25T03:11:51.889Z,97754.30
2018-07-25T03:14:21.541Z,97759.77
2018-07-25T03:16:50.446Z,97761.14
2018-07-25T03:19:19.126Z,97758.45
2018-07-25T03:21:47.868Z,97760.70
2018-07-25T03:24:16.838Z,97769.27
2018-07-25T03:26:45.768Z,97768.33
2018-07-25T03:29:14.570Z,97770.06
2018-07-25T03:31:43.378Z,97770.43
2018-07-25T03:34:12.197Z,97769.63
2018-07-25T03:36:41.353Z,97769.94
2018-07-25T03:39:10.405Z,97775.75
2018-07-25T03:41:39.231Z,97773.53
2018-07-25T03:44:07.955Z,97784.27
2018-07-25T03:46:36.859Z,97781.66
2018-07-25T03:49:05.689Z,97782.17
2018-07-25T03:51:34.414Z,97783.66
2018-07-25T03:54:03.193Z,97783.82
2018-07-25T03:56:32.206Z,97790.17
2018-07-25T03:59:01.059Z,97787.65
2018-07-25T04:01:30.148Z,97794.33
2018-07-25T04:03:59.112Z,97793.75
2018-07-25T04:06:28.033Z,97796.28
2018-07-25T04:08:56.947Z,97792.91
2018-07-25T04:11:25.738Z,97799.74
2018-07-25T04:13:54.684Z,97801.54
2018-07-25T04:16:23.713Z,97807.86
2018-07-25T04:18:52.565Z,97804.21
2018-07-25T04:21:21.436Z,97806.42
2018-07-25T04:23:50.416Z,97806.36
2018-07-25T04:26:19.217Z,97814.56
2018-07-25T04:28:47.990Z,97809.52
2018-07-25T04:31:16.825Z,97814.29
2018-07-25T04:33:45.850Z,97820.24
2018-07-25T04:36:14.823Z,97822.86
2018-07-25T04:38:43.636Z,97824.65
2018-07-25T04:41:12.486Z,97825.28
2018-07-25T04:43:41.512Z,97829.63
2018-07-25T04:46:10.606Z,97833.58
2018-07-25T04:48:39.812Z,97830.89
2018-07-25T04:51:09.147Z,97831.34
2018-07-25T04:53:38.095Z,97836.52
2018-07-25T04:56:07.013Z,97835.59
2018-07-25T04:58:36.020Z,97836.44
2018-07-25T05:01:05.096Z,97825.56
2018-07-25T05:03:34.339Z,97828.69
2018-07-25T05:06:03.433Z,97829.16
2018-07-25T05:08:32.228Z,97829.39
2018-07-25T05:11:01.083Z,97837.08
2018-07-25T05:13:29.901Z,97834.05
2018-07-25T05:15:58.728Z,97833.73
2018-07-25T05:18:27.533Z,97826.00
2018-07-25T05:20:56.393Z,97826.71
2018-07-25T05:23:25.936Z,97824.88
2018-07-25T05:25:55.185Z,97831.27
2018-07-25T05:28:24.080Z,97825.91
2018-07-25T05:30:52.930Z,97831.64
2018-07-25T05:33:21.905Z,97837.24
2018-07-25T05:35:50.866Z,97829.92
2018-07-25T05:38:19.744Z,97828.78
2018-07-25T05:40:49.059Z,97834.62
2018-07-25T05:43:18.069Z,97839.36
2018-07-25T05:45:46.903Z,97835.63
2018-07-25T05:48:16.079Z,97836.28
2018-07-25T05:50:46.089Z,97828.91
2018-07-25T05:53:15.210Z,97829.83
2018-07-25T05:55:44.246Z,97833.80
2018-07-25T05:58:13.362Z,97834.23
2018-07-25T06:00:43.341Z,97829.53
2018-07-25T06:03:12.408Z,97835.38
2018-07-25T06:05:41.242Z,97835.78
2018-07-25T06:08:10.309Z,97838.13
2018-07-25T06:10:39.458Z,97838.94
2018-07-25T06:13:08.559Z,97846.79
2018-07-25T06:15:37.293Z,97842.39
2018-07-25T06:18:06.566Z,97848.52
2018-07-25T06:20:35.404Z,97843.16
2018-07-25T06:23:04.832Z,97837.75
2018-07-25T06:25:33.775Z,97837.31
2018-07-25T06:28:02.789Z,97840.73
2018-07-25T06:30:31.825Z,97839.03
2018-07-25T06:33:00.623Z,97838.31
2018-07-25T06:35:29.557Z,97835.01
2018-07-25T06:38:21.203Z,97843.28
2018-07-25T06:40:50.981Z,97842.80
2018-07-25T06:43:19.764Z,97845.66
2018-07-25T06:45:48.658Z,97840.78
2018-07-25T06:48:18.849Z,97843.62
2018-07-25T06:50:47.791Z,97837.02
2018-07-25T06:53:16.696Z,97838.82
2018-07-25T06:55:45.687Z,97839.28
2018-07-25T06:58:14.697Z,97838.50
2018-07-25T07:00:43.637Z,97838.53
2018-07-25T07:03:12.547Z,97845.45
2018-07-25T07:05:41.366Z,97848.82
2018-07-25T07:08:10.430Z,97848.88
2018-07-25T07:10:39.785Z,97852.61
2018-07-25T07:13:08.663Z,97852.27
2018-07-25T07:15:37.426Z,97847.59
2018-07-25T07:18:06.366Z,97846.80
2018-07-25T07:20:35.201Z,97853.11
2018-07-25T07:23:04.306Z,97854.09
2018-07-25T07:25:33.065Z,97859.25
2018-07-25T07:28:01.955Z,97849.41
2018-07-25T07:30:30.816Z,97851.98
2018-07-25T07:32:59.980Z,97849.43
2018-07-25T07:35:28.996Z,97854.93
2018-07-25T07:37:57.985Z,97856.67
2018-07-25T07:40:26.964Z,97858.43
2018-07-25T07:42:56.121Z,97862.20
2018-07-25T07:45:25.018Z,97867.11
2018-07-25T07:47:54.198Z,97855.42
2018-07-25T07:50:23.153Z,97856.80
2018-07-25T07:52:52.011Z,97858.91
2018-07-25T07:55:20.923Z,97856.75
2018-07-25T07:57:49.785Z,97858.86
2018-07-25T08:00:18.794Z,97853.58
2018-07-25T08:02:47.653Z,97859.05
2018-07-25T08:05:16.572Z,97852.84
2018-07-25T08:07:45.469Z,97862.38
2018-07-25T08:10:14.453Z,97860.36
2018-07-25T08:12:43.322Z,97853.04
2018-07-25T08:15:12.092Z,97852.50
2018-07-25T08:17:40.965Z,97854.67
2018-07-25T08:20:09.810Z,97857.58
2018-07-25T08:22:38.606Z,97853.80
2018-07-25T08:25:07.505Z,97853.94
2018-07-25T08:27:36.297Z,97857.83
2018-07-25T08:30:06.163Z,97854.63
2018-07-25T08:32:34.992Z,97857.65
2018-07-25T08:35:03.882Z,97855.11
2018-07-25T08:37:32.880Z,97857.83
2018-07-25T08:40:01.742Z,97862.94
2018-07-25T08:42:30.813Z,97861.03
2018-07-25T08:44:59.679Z,97860.98
2018-07-25T08:47:28.425Z,97856.45
2018-07-25T08:49:57.572Z,97857.25
2018-07-25T08:52:26.740Z,97855.61
2018-07-25T08:54:55.522Z,97862.34
2018-07-25T08:57:24.431Z,97862.62
2018-07-25T08:59:53.343Z,97860.38
2018-07-25T09:02:22.236Z,97864.45
2018-07-25T09:04:51.192Z,97857.84
2018-07-25T09:07:19.918Z,97853.63
2018-07-25T09:09:48.864Z,97850.78
2018-07-25T09:12:17.600Z,97849.48
2018-07-25T09:14:46.434Z,97848.92
2018-07-25T09:17:15.219Z,97850.43
2018-07-25T09:19:44.610Z,97844.80
2018-07-25T09:22:13.346Z,97850.81
2018-07-25T09:24:42.503Z,97844.50
2018-07-25T09:27:11.322Z,97845.50
2018-07-25T09:29:40.265Z,97838.38
2018-07-25T09:32:09.067Z,97843.44
2018-07-25T09:34:37.854Z,97844.29
2018-07-25T09:37:06.808Z,97840.27
2018-07-25T09:39:35.685Z,97841.16
2018-07-25T09:42:04.665Z,97838.67
2018-07-25T09:44:33.659Z,97832.05
2018-07-25T09:47:02.534Z,97826.02
2018-07-25T09:49:33.202Z,97830.30
2018-07-25T09:52:02.069Z,97834.23
2018-07-25T09:54:30.890Z,97820.47
2018-07-25T09:56:59.804Z,97821.69
2018-07-25T09:59:28.553Z,97819.02
2018-07-25T10:01:57.395Z,97817.45
2018-07-25T10:04:26.514Z,97813.70
2018-07-25T10:06:55.362Z,97811.97
2018-07-25T10:09:24.214Z,97805.63
2018-07-25T10:11:53.017Z,97805.31
2018-07-25T10:14:22.256Z,97798.19
2018-07-25T10:16:51.124Z,97801.62
2018-07-25T10:19:20.086Z,97802.86
2018-07-25T10:21:48.961Z,97792.03
2018-07-25T10:24:17.895Z,97794.34
2018-07-25T10:26:46.737Z,97794.90
2018-07-25T10:29:15.574Z,97791.37
2018-07-25T10:31:44.327Z,97783.11
2018-07-25T10:34:13.742Z,97790.47
2018-07-25T10:36:42.515Z,97798.17
2018-07-25T10:39:11.732Z,97791.88
2018-07-25T10:41:40.766Z,97789.22
2018-07-25T10:44:09.498Z,97785.67
2018-07-25T10:46:38.282Z,97788.82
2018-07-25T10:49:07.333Z,97785.87
2018-07-25T10:51:36.264Z,97788.88
2018-07-25T10:54:05.194Z,97787.13
2018-07-25T10:56:34.113Z,97785.57
2018-07-25T10:59:03.192Z,97776.98
2018-07-25T11:01:32.391Z,97777.41
2018-07-25T11:04:01.507Z,97774.72
2018-07-25T11:06:30.467Z,97774.20
2018-07-25T11:08:59.226Z,97779.16
2018-07-25T11:11:29.350Z,97767.19
2018-07-25T11:13:59.586Z,97765.79
2018-07-25T11:16:28.524Z,97761.55
2018-07-25T11:18:57.366Z,97769.97
2018-07-25T11:21:26.589Z,97763.88
2018-07-25T11:23:55.830Z,97773.30
2018-07-25T11:26:24.643Z,97761.27
2018-07-25T11:28:53.466Z,97761.27
2018-07-25T11:31:22.345Z,97755.63
2018-07-25T11:33:51.197Z,97765.95
2018-07-25T11:36:20.471Z,97760.13
2018-07-25T11:38:49.532Z,97760.30
2018-07-25T11:41:18.355Z,97758.55
2018-07-25T11:43:47.274Z,97760.11
2018-07-25T11:46:16.176Z,97757.27
2018-07-25T11:48:44.954Z,97758.75
2018-07-25T11:51:14.336Z,97754.71
2018-07-25T11:53:43.165Z,97747.33
2018-07-25T11:56:12.047Z,97741.80
2018-07-25T11:58:41.027Z,97749.00
2018-07-25T12:01:09.979Z,97750.80
2018-07-25T12:03:39.055Z,97745.51
2018-07-25T12:06:08.257Z,97748.27
2018-07-25T12:08:37.233Z,97740.91
2018-07-25T12:11:06.940Z,97741.36
2018-07-25T12:13:35.796Z,97727.52
2018-07-25T12:16:04.761Z,97731.77
2018-07-25T12:18:34.347Z,97735.06
2018-07-25T12:21:03.541Z,97734.20
2018-07-25T12:23:32.484Z,97729.48
2018-07-25T12:26:01.581Z,97723.46
2018-07-25T12:28:30.566Z,97726.34
2018-07-25T12:30:59.363Z,97725.98
2018-07-25T12:33:28.356Z,97715.64
2018-07-25T12:35:57.194Z,97711.31
2018-07-25T12:38:26.314Z,97705.52
2018-07-25T12:40:55.256Z,97706.91
2018-07-25T12:43:24.045Z,97706.72
2018-07-25T12:45:52.772Z,97705.13
2018-07-25T12:48:21.763Z,97704.68
2018-07-25T12:50:50.669Z,97697.88
2018-07-25T12:53:19.791Z,97693.44
2018-07-25T12:55:48.717Z,97690.80
2018-07-25T12:58:17.504Z,97694.95
2018-07-25T13:00:46.319Z,97696.52
2018-07-25T13:03:15.418Z,97690.55
2018-07-25T13:05:44.546Z,97685.41
2018-07-25T13:08:13.458Z,97681.19
2018-07-25T13:10:42.473Z,97685.39
2018-07-25T13:13:11.735Z,97681.73
2018-07-25T13:15:40.698Z,97675.20
2018-07-25T13:18:09.594Z,97677.00
2018-07-25T13:20:38.509Z,97674.92
2018-07-25T13:23:07.387Z,97666.76
2018-07-25T13:25:36.196Z,97672.30
2018-07-25T13:28:04.933Z,97659.78
2018-07-25T13:30:34.090Z,97664.59
2018-07-25T13:33:03.028Z,97668.45
2018-07-25T13:35:31.917Z,97666.63
2018-07-25T13:38:01.125Z,97666.34
2018-07-25T13:40:30.158Z,97661.85
2018-07-25T13:42:59.507Z,97655.05
2018-07-25T13:45:28.352Z,97658.88
2018-07-25T13:47:57.617Z,97650.47
2018-07-25T13:50:26.419Z,97644.60
2018-07-25T13:52:55.493Z,97642.92
2018-07-25T13:55:24.353Z,97639.63
2018-07-25T13:57:53.475Z,97633.73
2018-07-25T14:00:22.302Z,97636.69
2018-07-25T14:02:51.407Z,97628.79
2018-07-25T14:05:20.225Z,97629.02
2018-07-25T14:07:49.402Z,97629.66
2018-07-25T14:10:18.370Z,97634.94
2018-07-25T14:12:47.470Z,97627.70
2018-07-25T14:15:16.275Z,97623.97
2018-07-25T14:17:45.329Z,97625.23
2018-07-25T14:20:14.426Z,97629.61
2018-07-25T14:22:43.455Z,97621.18
2018-07-25T14:25:12.314Z,97629.66
2018-07-25T14:27:41.301Z,97632.79
2018-07-25T14:30:10.131Z,97632.97
2018-07-25T14:32:39.290Z,97627.52
2018-07-25T14:35:08.197Z,97617.98
2018-07-25T14:37:37.049Z,97612.23
2018-07-25T14:40:06.495Z,97606.31
2018-07-25T14:42:35.518Z,97611.28
2018-07-25T14:45:04.642Z,97611.12
2018-07-25T14:47:33.784Z,97609.36
2018-07-25T14:50:02.568Z,97619.72
2018-07-25T14:52:31.529Z,97609.12
2018-07-25T14:55:00.549Z,97615.78
2018-07-25T14:57:29.305Z,97608.29
2018-07-25T14:59:58.237Z,97607.88
2018-07-25T15:02:27.296Z,97612.07
2018-07-25T15:04:56.018Z,97611.70
2018-07-25T15:07:25.129Z,97617.85
2018-07-25T15:09:54.070Z,97609.87
2018-07-25T15:12:28.466Z,97612.58
2018-07-25T15:14:57.610Z,97611.31
2018-07-25T15:17:26.489Z,97611.80
2018-07-25T15:19:55.270Z,97617.55
2018-07-25T15:22:24.106Z,97623.13
2018-07-25T15:24:53.041Z,97627.84
2018-07-25T15:27:22.231Z,97623.47
2018-07-25T15:29:51.414Z,97621.22
2018-07-25T15:32:20.730Z,97622.19
2018-07-25T15:34:49.783Z,97610.30
2018-07-25T15:37:18.643Z,97615.66
2018-07-25T15:39:47.649Z,97614.97
2018-07-25T15:42:16.500Z,97619.78
2018-07-25T15:44:45.552Z,97618.89
2018-07-25T15:47:14.543Z,97617.94
2018-07-25T15:49:43.698Z,97612.45
2018-07-25T15:52:12.878Z,97610.66
2018-07-25T15:54:41.720Z,97603.88
2018-07-25T15:57:10.638Z,97605.11
2018-07-25T15:59:39.561Z,97608.32
2018-07-25T16:02:09.266Z,97610.18
2018-07-25T16:04:38.174Z,97607.87
2018-07-25T16:07:07.106Z,97608.75
2018-07-25T16:09:36.285Z,97610.03
2018-07-25T16:12:05.168Z,97607.08
2018-07-25T16:14:34.034Z,97602.50
2018-07-25T16:17:03.289Z,97604.44
2018-07-25T16:19:32.173Z,97593.16
2018-07-25T16:22:01.210Z,97594.84
2018-07-25T16:24:30.256Z,97589.25
2018-07-25T16:26:59.496Z,97590.63
2018-07-25T16:29:28.621Z,97594.30
2018-07-25T16:31:57.462Z,97596.39
2018-07-25T16:34:26.317Z,97584.20
2018-07-25T16:36:55.173Z,97589.72
2018-07-25T16:39:24.194Z,97589.98
2018-07-25T16:41:53.261Z,97582.77
2018-07-25T16:44:22.267Z,97589.66
2018-07-25T16:46:50.986Z,97589.02
2018-07-25T16:49:20.061Z,97594.63
2018-07-25T16:51:49.106Z,97594.92
2018-07-25T16:54:18.035Z,97595.66
2018-07-25T16:56:47.126Z,97597.48
2018-07-25T16:59:16.030Z,97594.09
2018-07-25T17:01:45.007Z,97600.34
2018-07-25T17:04:13.771Z,97604.70
2018-07-25T17:06:42.778Z,97606.91
2018-07-25T17:09:12.703Z,97606.37
2018-07-25T17:11:41.675Z,97604.44
2018-07-25T17:14:10.468Z,97601.16
2018-07-25T17:16:39.297Z,97606.27
2018-07-25T17:19:08.375Z,97611.02
2018-07-25T17:21:37.480Z,97612.73
2018-07-25T17:24:06.431Z,97607.81
2018-07-25T17:26:35.289Z,97600.56
2018-07-25T17:29:04.116Z,97599.22
2018-07-25T17:31:32.973Z,97600.58
2018-07-25T17:34:01.882Z,97608.20
2018-07-25T17:36:30.653Z,97614.66
2018-07-25T17:38:59.521Z,97617.59
2018-07-25T17:41:28.477Z,97616.20
2018-07-25T17:43:58.164Z,97625.39
2018-07-25T17:46:27.160Z,97623.77
2018-07-25T17:48:56.222Z,97623.13
2018-07-25T17:51:24.928Z,97624.36
2018-07-25T17:53:53.738Z,97623.58
2018-07-25T17:56:23.222Z,97622.90
2018-07-25T17:58:52.257Z,97627.02
2018-07-25T18:01:21.106Z,97631.27
2018-07-25T18:03:49.919Z,97623.63
2018-07-25T18:06:18.868Z,97630.98
2018-07-25T18:08:48.088Z,97632.07
2018-07-25T18:11:17.051Z,97630.33
2018-07-25T18:13:51.251Z,97631.50
2018-07-25T18:16:20.172Z,97635.57
2018-07-25T18:18:49.250Z,97643.29
2018-07-25T18:21:18.225Z,97646.93
2018-07-25T18:23:47.210Z,97658.59
2018-07-25T18:26:16.138Z,97656.98
2018-07-25T18:28:44.912Z,97657.09
2018-07-25T18:31:13.943Z,97665.87
2018-07-25T18:33:42.952Z,97661.00
2018-07-25T18:36:11.863Z,97667.84
2018-07-25T18:38:40.868Z,97663.40
2018-07-25T18:41:10.058Z,97671.00
2018-07-25T18:43:38.861Z,97671.98
2018-07-25T18:46:07.908Z,97674.28
2018-07-25T18:48:36.821Z,97681.94
2018-07-25T18:51:05.730Z,97681.92
2018-07-25T18:53:35.025Z,97681.20
2018-07-25T18:56:04.100Z,97692.09
2018-07-25T18:58:33.222Z,97689.27
2018-07-25T19:01:01.974Z,97692.95
2018-07-25T19:03:30.812Z,97699.55
2018-07-25T19:05:59.819Z,97699.69
2018-07-25T19:08:28.866Z,97703.52
2018-07-25T19:10:57.739Z,97704.86
2018-07-25T19:13:31.759Z,97710.92
2018-07-25T19:16:00.694Z,97715.48
2018-07-25T19:18:29.516Z,97718.94
2018-07-25T19:20:58.341Z,97720.84
2018-07-25T19:23:27.969Z,97727.36
2018-07-25T19:25:56.646Z,97736.05
2018-07-25T19:28:25.861Z,97739.74
2018-07-25T19:30:54.618Z,97736.72
2018-07-25T19:33:23.389Z,97743.39
2018-07-25T19:35:52.275Z,97747.36
2018-07-25T19:38:21.133Z,97756.73
2018-07-25T19:40:49.889Z,97759.24
2018-07-25T19:43:18.777Z,97758.73
2018-07-25T19:45:47.721Z,97758.88
2018-07-25T19:48:16.562Z,97757.98
2018-07-25T19:50:45.357Z,97758.20
2018-07-25T19:53:14.399Z,97763.00
2018-07-25T19:55:43.349Z,97757.65
2018-07-25T19:58:12.333Z,97758.64
2018-07-25T20:00:41.291Z,97761.88
2018-07-25T20:03:10.159Z,97762.87
2018-07-25T20:05:39.145Z,97761.19
2018-07-25T20:08:07.951Z,97750.83
2018-07-25T20:10:36.826Z,97755.39
2018-07-25T20:13:05.846Z,97754.94
2018-07-25T20:15:39.795Z,97761.32
2018-07-25T20:18:08.899Z,97758.23
2018-07-25T20:20:37.783Z,97762.80
2018-07-25T20:23:06.792Z,97763.81
2018-07-25T20:25:35.485Z,97758.52
2018-07-25T20:28:04.508Z,97765.12
2018-07-25T20:30:33.415Z,97762.96
2018-07-25T20:33:02.325Z,97765.19
2018-07-25T20:35:31.187Z,97764.44
2018-07-25T20:37:59.926Z,97767.07
2018-07-25T20:40:28.737Z,97763.16
2018-07-25T20:42:57.526Z,97769.11
2018-07-25T20:45:26.429Z,97770.34
2018-07-25T20:47:55.254Z,97775.87
2018-07-25T20:50:24.192Z,97780.06
2018-07-25T20:52:53.095Z,97787.95
2018-07-25T20:55:21.957Z,97786.98
2018-07-25T20:57:50.767Z,97783.66
2018-07-25T21:00:23.689Z,97786.47
2018-07-25T21:02:52.648Z,97794.38
2018-07-25T21:05:21.605Z,97796.36
2018-07-25T21:07:50.529Z,97797.02
2018-07-25T21:10:19.436Z,97800.19
2018-07-25T21:12:48.356Z,97810.07
2018-07-25T21:15:17.592Z,97806.90
2018-07-25T21:17:46.628Z,97806.11
2018-07-25T21:20:15.603Z,97807.71
2018-07-25T21:22:44.509Z,97813.45
2018-07-25T21:25:13.317Z,97817.59
2018-07-25T21:27:42.157Z,97815.42
2018-07-25T21:30:11.171Z,97817.42
2018-07-25T21:32:40.023Z,97824.32
2018-07-25T21:35:09.173Z,97828.67
2018-07-25T21:37:38.026Z,97821.76
2018-07-25T21:40:06.809Z,97819.25
2018-07-25T21:42:35.636Z,97826.34
2018-07-25T21:45:04.511Z,97825.54
2018-07-25T21:47:33.408Z,97824.18
2018-07-25T21:50:02.199Z,97827.53
2018-07-25T21:52:31.090Z,97824.58
2018-07-25T21:54:59.965Z,97830.70
2018-07-25T21:57:29.162Z,97830.70
2018-07-25T21:59:57.993Z,97826.38
2018-07-25T22:02:26.716Z,97831.11
2018-07-25T22:04:55.852Z,97833.05
2018-07-25T22:07:24.677Z,97825.73
2018-07-25T22:09:53.432Z,97827.91
2018-07-25T22:12:22.367Z,97829.89
2018-07-25T22:14:51.193Z,97836.75
2018-07-25T22:17:20.163Z,97833.21
2018-07-25T22:19:49.029Z,97830.66
2018-07-25T22:22:17.861Z,97831.02
2018-07-25T22:24:46.683Z,97833.19
2018-07-25T22:27:15.419Z,97835.16
2018-07-25T22:29:44.330Z,97834.17
2018-07-25T22:32:13.388Z,97830.23
2018-07-25T22:34:42.442Z,97831.80
2018-07-25T22:37:11.536Z,97834.16
2018-07-25T22:39:40.410Z,97840.66
2018-07-25T22:42:09.420Z,97841.64
2018-07-25T22:44:38.334Z,97844.96
2018-07-25T22:47:07.305Z,97844.37
2018-07-25T22:49:35.963Z,97844.32
2018-07-25T22:52:04.666Z,97851.77
2018-07-25T22:54:33.359Z,97843.09
2018-07-25T22:57:02.276Z,97850.34
2018-07-25T22:59:31.053Z,97846.59
2018-07-25T23:01:59.865Z,97848.14
2018-07-25T23:04:28.641Z,97850.66
2018-07-25T23:06:57.527Z,97849.45
2018-07-25T23:09:26.512Z,97852.55
2018-07-25T23:11:55.531Z,97851.77
2018-07-25T23:14:24.739Z,97854.28
2018-07-25T23:16:53.536Z,97853.30
2018-07-25T23:19:22.456Z,97849.75
2018-07-25T23:21:51.281Z,97855.27
2018-07-25T23:24:20.972Z,97849.75
2018-07-25T23:26:49.782Z,97852.47
2018-07-25T23:29:18.624Z,97851.48
2018-07-25T23:31:47.707Z,97849.47
2018-07-25T23:34:16.430Z,97860.05
2018-07-25T23:36:45.478Z,97858.08
2018-07-25T23:39:14.345Z,97862.01
2018-07-25T23:41:43.301Z,97860.59
2018-07-25T23:44:12.161Z,97862.75
2018-07-25T23:46:40.989Z,97860.55
2018-07-25T23:49:09.832Z,97861.08
2018-07-25T23:51:38.709Z,97857.08
2018-07-25T23:54:07.519Z,97849.80
2018-07-25T23:56:36.230Z,97851.14
2018-07-25T23:59:05.198Z,97852.66
